Goodrich, Wisconsin
Current Conditions -  °F | °C
As of 11:15 AM on Friday 24 Oct 2014 (Local Time) from KMDZ Reporting Station
Haze Haze  
Wind Chill: 43°   Ceiling: 200
Heat Index: 46°   Visibility: 1.7mi
Dew Point: 46°   Wind: 6mph
Humidity: 100%   Direction: 160°SSE
Pressure: 29.97"   Gusts: NA
Location:  45.2044°N, 90.4212°W
Report Text: KMDZ 241615Z AUTO 16005KT 1 3/4SM BR OVC002 08/08 A2997 RMK AO2 T00770077
Loading
Personal Weather Stations






























Interactive Weather Map
Tropical Storm Tracking
New forecast layout! Learn more

10-Day Weather Forecast

Advertisements
Track Severe Weather on mobile